createdAt,value
2018-11-23T00:00:35.275Z,9.20
2018-11-23T00:03:06.076Z,9.20
2018-11-23T00:05:36.471Z,9.20
2018-11-23T00:08:06.044Z,9.20
2018-11-23T00:10:35.528Z,9.20
2018-11-23T00:13:04.971Z,9.20
2018-11-23T00:15:34.931Z,9.20
2018-11-23T00:18:04.557Z,9.20
2018-11-23T00:20:34.047Z,9.20
2018-11-23T00:23:03.665Z,9.20
2018-11-23T00:25:32.999Z,9.20
2018-11-23T00:28:02.583Z,9.20
2018-11-23T00:30:32.092Z,9.20
2018-11-23T00:33:01.468Z,9.30
2018-11-23T00:35:31.517Z,9.30
2018-11-23T00:38:01.126Z,9.30
2018-11-23T00:40:31.649Z,9.30
2018-11-23T00:43:01.983Z,9.30
2018-11-23T00:45:31.387Z,9.30
2018-11-23T00:48:01.298Z,9.30
2018-11-23T00:50:30.708Z,9.30
2018-11-23T00:53:00.930Z,9.30
2018-11-23T00:55:30.664Z,9.30
2018-11-23T00:58:00.120Z,9.30
2018-11-23T01:00:31.739Z,9.30
2018-11-23T01:03:02.332Z,9.30
2018-11-23T01:05:31.730Z,9.30
2018-11-23T01:08:01.263Z,9.30
2018-11-23T01:10:31.285Z,9.30
2018-11-23T01:13:00.682Z,9.30
2018-11-23T01:15:30.122Z,9.30
2018-11-23T01:17:59.531Z,9.30
2018-11-23T01:20:29.368Z,9.30
2018-11-23T01:22:59.385Z,9.30
2018-11-23T01:25:29.261Z,9.30
2018-11-23T01:27:58.646Z,9.30
2018-11-23T01:30:29.836Z,9.30
2018-11-23T01:32:59.427Z,9.30
2018-11-23T01:35:28.864Z,9.30
2018-11-23T01:37:58.344Z,9.30
2018-11-23T01:40:29.206Z,9.30
2018-11-23T01:42:59.100Z,9.30
2018-11-23T01:45:28.649Z,9.30
2018-11-23T01:47:58.020Z,9.30
2018-11-23T01:50:28.802Z,9.30
2018-11-23T01:52:58.594Z,9.30
2018-11-23T01:55:28.173Z,9.30
2018-11-23T01:57:57.699Z,9.30
2018-11-23T02:00:28.847Z,9.30
2018-11-23T02:02:58.667Z,9.30
2018-11-23T02:05:28.035Z,9.30
2018-11-23T02:07:57.497Z,9.30
2018-11-23T02:10:27.058Z,9.30
2018-11-23T02:12:56.586Z,9.30
2018-11-23T02:15:26.023Z,9.20
2018-11-23T02:17:55.561Z,9.30
2018-11-23T02:20:25.198Z,9.20
2018-11-23T02:22:54.558Z,9.20
2018-11-23T02:25:23.914Z,9.30
2018-11-23T02:27:53.474Z,9.20
2018-11-23T02:30:24.411Z,9.20
2018-11-23T02:32:53.823Z,9.20
2018-11-23T02:35:23.416Z,9.20
2018-11-23T02:37:52.781Z,9.20
2018-11-23T02:40:22.302Z,9.20
2018-11-23T02:42:51.685Z,9.20
2018-11-23T02:45:22.563Z,9.20
2018-11-23T02:47:52.373Z,9.20
2018-11-23T02:50:21.870Z,9.20
2018-11-23T02:52:51.494Z,9.20
2018-11-23T02:55:21.603Z,9.20
2018-11-23T02:57:51.503Z,9.20
2018-11-23T03:00:22.076Z,9.20
2018-11-23T03:02:51.670Z,9.20
2018-11-23T03:05:22.565Z,9.20
2018-11-23T03:07:52.128Z,9.20
2018-11-23T03:10:21.485Z,9.20
2018-11-23T03:12:50.991Z,9.20
2018-11-23T03:15:21.322Z,9.20
2018-11-23T03:17:51.254Z,9.20
2018-11-23T03:20:22.229Z,9.20
2018-11-23T03:22:52.232Z,9.20
2018-11-23T03:25:21.627Z,9.20
2018-11-23T03:27:51.081Z,9.20
2018-11-23T03:30:21.899Z,9.20
2018-11-23T03:32:52.133Z,9.20
2018-11-23T03:35:22.998Z,9.20
2018-11-23T03:37:52.566Z,9.20
2018-11-23T03:40:21.946Z,9.20
2018-11-23T03:42:52.622Z,9.20
2018-11-23T03:45:22.233Z,9.20
2018-11-23T03:47:51.621Z,9.20
2018-11-23T03:50:21.166Z,9.20
2018-11-23T03:52:50.530Z,9.20
2018-11-23T03:55:20.069Z,9.20
2018-11-23T03:57:49.515Z,9.20
2018-11-23T04:00:20.492Z,9.20
2018-11-23T04:02:50.550Z,9.20
2018-11-23T04:05:20.158Z,9.20
2018-11-23T04:07:49.759Z,9.20
2018-11-23T04:10:19.364Z,9.20
2018-11-23T04:12:48.757Z,9.20
2018-11-23T04:15:18.148Z,9.20
2018-11-23T04:17:47.630Z,9.20
2018-11-23T04:20:17.830Z,9.20
2018-11-23T04:22:47.423Z,9.20
2018-11-23T04:25:16.913Z,9.20
2018-11-23T04:27:46.435Z,9.20
2018-11-23T04:30:16.904Z,9.20
2018-11-23T04:32:47.536Z,9.20
2018-11-23T04:35:18.242Z,9.20
2018-11-23T04:37:48.241Z,9.20
2018-11-23T04:40:18.803Z,9.20
2018-11-23T04:42:48.913Z,9.20
2018-11-23T04:45:18.325Z,9.20
2018-11-23T04:47:47.788Z,9.20
2018-11-23T04:50:17.766Z,9.20
2018-11-23T04:52:47.220Z,9.20
2018-11-23T04:55:16.678Z,9.20
2018-11-23T04:57:47.302Z,9.20
2018-11-23T05:00:17.041Z,9.20
2018-11-23T05:02:47.326Z,9.20
2018-11-23T05:05:16.816Z,9.20
2018-11-23T05:07:47.431Z,9.20
2018-11-23T05:10:17.823Z,9.20
2018-11-23T05:12:47.327Z,9.20
2018-11-23T05:15:17.796Z,9.20
2018-11-23T05:17:47.492Z,9.20
2018-11-23T05:20:17.449Z,9.20
2018-11-23T05:22:47.122Z,9.20
2018-11-23T05:25:17.791Z,9.20
2018-11-23T05:27:47.247Z,9.20
2018-11-23T05:30:19.233Z,9.20
2018-11-23T05:32:48.839Z,9.20
2018-11-23T05:35:18.945Z,9.20
2018-11-23T05:37:48.399Z,9.20
2018-11-23T05:40:20.234Z,9.20
2018-11-23T05:42:49.829Z,9.20
2018-11-23T05:45:20.576Z,9.30
2018-11-23T05:47:50.091Z,9.20
2018-11-23T05:50:22.049Z,9.20
2018-11-23T05:52:52.230Z,9.20
2018-11-23T05:55:21.657Z,9.20
2018-11-23T05:57:51.791Z,9.20
2018-11-23T06:00:25.016Z,9.20
2018-11-23T06:02:54.488Z,9.20
2018-11-23T06:05:23.965Z,9.20
2018-11-23T06:07:53.514Z,9.20
2018-11-23T06:10:23.296Z,9.20
2018-11-23T06:12:52.846Z,9.20
2018-11-23T06:15:23.698Z,9.20
2018-11-23T06:17:54.405Z,9.20
2018-11-23T06:20:25.305Z,9.20
2018-11-23T06:22:55.473Z,9.20
2018-11-23T06:25:32.866Z,9.20
2018-11-23T06:28:02.344Z,9.20
2018-11-23T06:30:31.912Z,9.20
2018-11-23T06:33:18.366Z,9.20
2018-11-23T06:35:47.996Z,9.20
2018-11-23T06:38:17.478Z,9.20
2018-11-23T06:40:47.594Z,9.20
2018-11-23T06:43:17.946Z,9.20
2018-11-23T06:45:47.528Z,9.20
2018-11-23T06:48:16.951Z,9.20
2018-11-23T06:50:46.439Z,9.30
2018-11-23T06:53:15.945Z,9.20
2018-11-23T06:55:45.382Z,9.20
2018-11-23T06:58:15.680Z,9.30
2018-11-23T07:00:45.702Z,9.30
2018-11-23T07:03:15.809Z,9.20
2018-11-23T07:05:45.253Z,9.30
2018-11-23T07:08:14.766Z,9.20
2018-11-23T07:10:44.159Z,9.30
2018-11-23T07:13:13.602Z,9.30
2018-11-23T07:15:43.080Z,9.20
2018-11-23T07:18:12.623Z,9.30
2018-11-23T07:20:42.003Z,9.30
2018-11-23T07:23:11.426Z,9.20
2018-11-23T07:25:40.803Z,9.30
2018-11-23T07:28:15.424Z,9.30
2018-11-23T07:30:40.848Z,9.30
2018-11-23T07:33:10.295Z,9.30
2018-11-23T07:35:39.775Z,9.30
2018-11-23T07:38:09.173Z,9.30
2018-11-23T07:41:57.408Z,9.30
2018-11-23T07:44:26.937Z,9.10
2018-11-23T07:46:56.833Z,9.20
2018-11-23T07:49:26.302Z,9.20
2018-11-23T07:51:55.844Z,9.20
2018-11-23T07:54:25.193Z,9.20
2018-11-23T07:56:54.558Z,9.30
2018-11-23T07:59:23.895Z,9.30
2018-11-23T08:01:54.542Z,9.30
2018-11-23T08:04:23.090Z,9.30
2018-11-23T08:06:52.531Z,9.30
2018-11-23T08:09:22.207Z,9.30
2018-11-23T08:11:52.002Z,9.30
2018-11-23T08:14:21.934Z,9.30
2018-11-23T08:16:51.446Z,9.30
2018-11-23T08:19:20.768Z,9.40
2018-11-23T08:21:50.267Z,9.40
2018-11-23T08:24:19.694Z,9.40
2018-11-23T08:26:49.362Z,9.40
2018-11-23T08:29:18.776Z,9.50
2018-11-23T08:31:48.195Z,9.50
2018-11-23T08:34:17.550Z,9.50
2018-11-23T08:36:47.109Z,9.50
2018-11-23T08:39:17.118Z,9.50
2018-11-23T08:41:46.534Z,9.60
2018-11-23T08:44:15.950Z,9.60
2018-11-23T08:46:45.339Z,9.60
2018-11-23T08:49:15.632Z,9.60
2018-11-23T08:51:44.112Z,9.60
2018-11-23T08:54:14.424Z,9.60
2018-11-23T08:56:43.769Z,9.70
2018-11-23T08:59:13.379Z,9.70
2018-11-23T09:01:42.898Z,9.70
2018-11-23T09:04:12.218Z,9.70
2018-11-23T09:06:41.565Z,9.80
2018-11-23T09:09:11.935Z,9.80
2018-11-23T09:11:41.463Z,9.80
2018-11-23T09:14:11.702Z,9.80
2018-11-23T09:16:41.056Z,9.80
2018-11-23T09:19:10.505Z,9.90
2018-11-23T09:21:39.903Z,9.90
2018-11-23T09:24:09.341Z,9.90
2018-11-23T09:26:38.885Z,9.90
2018-11-23T09:29:08.353Z,9.90
2018-11-23T09:31:37.911Z,9.90
2018-11-23T09:34:07.333Z,9.90
2018-11-23T09:36:36.842Z,9.90
2018-11-23T09:39:08.089Z,9.90
2018-11-23T09:41:37.696Z,10.00
2018-11-23T09:44:07.314Z,9.90
2018-11-23T09:46:36.669Z,10.00
2018-11-23T09:49:06.317Z,10.00
2018-11-23T09:51:35.866Z,10.00
2018-11-23T09:54:05.309Z,10.00
2018-11-23T09:56:34.863Z,10.00
2018-11-23T09:59:04.388Z,10.00
2018-11-23T10:01:33.742Z,10.00
2018-11-23T10:04:03.219Z,10.00
2018-11-23T10:06:32.683Z,10.00
2018-11-23T10:09:02.141Z,10.00
2018-11-23T10:11:32.130Z,10.00
2018-11-23T10:14:01.529Z,10.00
2018-11-23T10:16:31.082Z,10.00
2018-11-23T10:19:00.464Z,10.00
2018-11-23T10:21:29.994Z,10.00
2018-11-23T10:23:59.997Z,10.00
2018-11-23T10:26:29.489Z,10.00
2018-11-23T10:28:59.444Z,10.00
2018-11-23T10:31:28.915Z,10.10
2018-11-23T10:33:58.373Z,10.10
2018-11-23T10:36:27.822Z,10.10
2018-11-23T10:38:57.226Z,10.10
2018-11-23T10:41:26.760Z,10.10
2018-11-23T10:43:57.127Z,10.10
2018-11-23T10:46:26.609Z,10.10
2018-11-23T10:48:55.978Z,10.10
2018-11-23T10:51:25.318Z,10.10
2018-11-23T10:53:54.682Z,10.10
2018-11-23T10:56:24.203Z,10.10
2018-11-23T10:58:53.736Z,10.10
2018-11-23T11:01:28.426Z,10.10
2018-11-23T11:03:59.927Z,10.10
2018-11-23T11:06:34.620Z,10.20
2018-11-23T11:09:04.854Z,10.20
2018-11-23T11:11:34.299Z,10.20
2018-11-23T11:14:03.818Z,10.20
2018-11-23T11:16:33.435Z,10.20
2018-11-23T11:19:03.005Z,10.20
2018-11-23T11:21:32.515Z,10.20
2018-11-23T11:24:02.064Z,10.20
2018-11-23T11:26:32.171Z,10.30
2018-11-23T11:29:01.830Z,10.30
2018-11-23T11:31:31.381Z,10.30
2018-11-23T11:34:00.832Z,10.30
2018-11-23T11:36:30.315Z,10.30
2018-11-23T11:38:59.787Z,10.30
2018-11-23T11:41:29.191Z,10.30
2018-11-23T11:43:58.692Z,10.30
2018-11-23T11:46:28.082Z,10.30
2018-11-23T11:48:57.601Z,10.40
2018-11-23T11:51:27.449Z,10.40
2018-11-23T11:53:56.837Z,10.40
2018-11-23T11:56:26.246Z,10.40
2018-11-23T11:58:55.778Z,10.40
2018-11-23T12:01:26.234Z,10.40
2018-11-23T12:03:57.245Z,10.40
2018-11-23T12:06:26.622Z,10.40
2018-11-23T12:08:56.541Z,10.50
2018-11-23T12:11:25.980Z,10.50
2018-11-23T12:13:55.337Z,10.50
2018-11-23T12:16:25.424Z,10.50
2018-11-23T12:18:54.861Z,10.50
2018-11-23T12:21:24.300Z,10.50
2018-11-23T12:23:53.603Z,10.50
2018-11-23T12:26:23.025Z,10.50
2018-11-23T12:28:52.619Z,10.50
2018-11-23T12:31:22.144Z,10.60
2018-11-23T12:33:51.656Z,10.60
2018-11-23T12:36:22.247Z,10.60
2018-11-23T12:38:51.616Z,10.60
2018-11-23T12:41:21.074Z,10.60
2018-11-23T12:43:50.817Z,10.60
2018-11-23T12:46:20.299Z,10.60
2018-11-23T12:48:49.641Z,10.60
2018-11-23T12:51:19.085Z,10.60
2018-11-23T12:53:48.506Z,10.60
2018-11-23T12:56:18.810Z,10.70
2018-11-23T12:58:48.287Z,10.70
2018-11-23T13:01:17.773Z,10.70
2018-11-23T13:03:48.103Z,10.70
2018-11-23T13:06:17.905Z,10.70
2018-11-23T13:08:47.410Z,10.70
2018-11-23T13:11:16.793Z,10.70
2018-11-23T13:13:46.342Z,10.70
2018-11-23T13:16:15.734Z,10.70
2018-11-23T13:18:45.201Z,10.80
2018-11-23T13:21:14.746Z,10.80
2018-11-23T13:23:44.108Z,10.80
2018-11-23T13:26:13.674Z,10.70
2018-11-23T13:28:43.345Z,10.80
2018-11-23T13:31:13.034Z,10.80
2018-11-23T13:33:42.569Z,10.80
2018-11-23T13:36:12.084Z,10.80
2018-11-23T13:38:41.451Z,10.80
2018-11-23T13:41:11.984Z,10.80
2018-11-23T13:43:41.438Z,10.80
2018-11-23T13:46:11.381Z,10.80
2018-11-23T13:48:40.910Z,10.80
2018-11-23T13:51:10.620Z,10.80
2018-11-23T13:53:40.043Z,10.80
2018-11-23T13:56:09.979Z,10.80
2018-11-23T13:58:39.561Z,10.80
2018-11-23T14:01:09.053Z,10.80
2018-11-23T14:03:38.460Z,10.80
2018-11-23T14:06:08.398Z,10.80
2018-11-23T14:08:37.897Z,10.80
2018-11-23T14:11:07.302Z,10.90
2018-11-23T14:13:36.726Z,10.90
2018-11-23T14:16:06.917Z,10.80
2018-11-23T14:18:36.448Z,10.80
2018-11-23T14:21:06.384Z,10.90
2018-11-23T14:23:35.826Z,10.80
2018-11-23T14:26:05.510Z,10.90
2018-11-23T14:28:35.649Z,10.90
2018-11-23T14:31:05.335Z,10.90
2018-11-23T14:33:35.007Z,10.90
2018-11-23T14:36:04.357Z,10.90
2018-11-23T14:38:33.869Z,10.90
2018-11-23T14:41:03.234Z,10.80
2018-11-23T14:43:32.675Z,10.80
2018-11-23T14:46:02.270Z,10.80
2018-11-23T14:48:31.647Z,10.80
2018-11-23T14:51:01.054Z,10.80
2018-11-23T14:53:30.487Z,10.80
2018-11-23T14:55:59.902Z,10.80
2018-11-23T14:58:30.041Z,10.80
2018-11-23T15:00:59.549Z,10.80
2018-11-23T15:03:29.050Z,10.80
2018-11-23T15:05:58.555Z,10.80
2018-11-23T15:08:28.010Z,10.80
2018-11-23T15:10:57.513Z,10.80
2018-11-23T15:13:26.891Z,10.80
2018-11-23T15:15:56.462Z,10.70
2018-11-23T15:18:25.953Z,10.70
2018-11-23T15:20:55.558Z,10.70
2018-11-23T15:23:25.214Z,10.50
2018-11-23T15:25:54.815Z,10.70
2018-11-23T15:28:24.269Z,10.60
2018-11-23T15:30:53.754Z,10.60
2018-11-23T15:33:24.077Z,10.60
2018-11-23T15:35:53.677Z,10.60
2018-11-23T15:38:24.954Z,10.60
2018-11-23T15:40:54.562Z,10.60
2018-11-23T15:43:24.000Z,10.60
2018-11-23T15:45:53.420Z,10.50
2018-11-23T15:48:22.795Z,10.50
2018-11-23T15:50:52.284Z,10.50
2018-11-23T15:53:21.886Z,10.50
2018-11-23T15:55:51.389Z,10.50
2018-11-23T15:58:20.901Z,10.50
2018-11-23T16:00:50.398Z,10.50
2018-11-23T16:03:19.920Z,10.50
2018-11-23T16:05:50.361Z,10.40
2018-11-23T16:08:21.144Z,10.40
2018-11-23T16:10:50.561Z,10.40
2018-11-23T16:13:20.145Z,10.40
2018-11-23T16:15:49.856Z,10.40
2018-11-23T16:18:19.353Z,10.40
2018-11-23T16:20:48.783Z,10.30
2018-11-23T16:23:19.821Z,10.30
2018-11-23T16:25:49.997Z,10.30
2018-11-23T16:28:19.462Z,10.30
2018-11-23T16:30:50.204Z,10.20
2018-11-23T16:33:21.194Z,10.20
2018-11-23T16:35:50.608Z,10.20
2018-11-23T16:38:21.802Z,10.20
2018-11-23T16:40:53.846Z,10.10
2018-11-23T16:43:23.342Z,10.20
2018-11-23T16:45:53.047Z,10.10
2018-11-23T16:48:23.370Z,10.10
2018-11-23T16:50:53.018Z,10.10
2018-11-23T16:53:22.604Z,10.10
2018-11-23T16:55:52.333Z,10.10
2018-11-23T16:58:21.915Z,10.10
2018-11-23T17:00:51.583Z,10.00
2018-11-23T17:03:22.310Z,10.00
2018-11-23T17:05:54.225Z,10.00
2018-11-23T17:08:23.744Z,10.00
2018-11-23T17:10:53.526Z,9.90
2018-11-23T17:13:22.995Z,9.90
2018-11-23T17:15:52.744Z,9.90
2018-11-23T17:18:22.306Z,9.90
2018-11-23T17:20:51.828Z,9.90
2018-11-23T17:23:21.278Z,9.90
2018-11-23T17:25:50.876Z,9.80
2018-11-23T17:28:20.348Z,9.80
2018-11-23T17:30:49.763Z,9.80
2018-11-23T17:33:19.403Z,9.80
2018-11-23T17:35:48.863Z,9.80
2018-11-23T17:38:18.335Z,9.70
2018-11-23T17:40:47.784Z,9.70
2018-11-23T17:43:17.273Z,9.70
2018-11-23T17:45:46.767Z,9.70
2018-11-23T17:48:16.186Z,9.60
2018-11-23T17:50:45.697Z,9.60
2018-11-23T17:53:15.146Z,9.60
2018-11-23T17:55:44.685Z,9.60
2018-11-23T17:58:14.153Z,9.50
2018-11-23T18:00:44.526Z,9.50
2018-11-23T18:03:13.922Z,9.50
2018-11-23T18:05:43.605Z,9.50
2018-11-23T18:08:13.052Z,9.40
2018-11-23T18:10:43.152Z,9.40
2018-11-23T18:13:12.528Z,9.40
2018-11-23T18:15:42.713Z,9.30
2018-11-23T18:18:13.152Z,9.30
2018-11-23T18:20:42.767Z,9.30
2018-11-23T18:23:12.146Z,9.30
2018-11-23T18:25:41.824Z,9.30
2018-11-23T18:28:11.808Z,9.30
2018-11-23T18:30:41.921Z,9.20
2018-11-23T18:33:11.295Z,9.20
2018-11-23T18:35:40.790Z,9.20
2018-11-23T18:38:10.468Z,9.20
2018-11-23T18:40:40.454Z,9.20
2018-11-23T18:43:10.065Z,9.20
2018-11-23T18:45:39.602Z,9.10
2018-11-23T18:48:09.213Z,9.20
2018-11-23T18:50:38.658Z,9.10
2018-11-23T18:53:08.074Z,9.10
2018-11-23T18:55:37.661Z,9.10
2018-11-23T18:58:07.311Z,9.10
2018-11-23T19:00:36.853Z,9.10
2018-11-23T19:03:06.941Z,9.10
2018-11-23T19:05:36.427Z,9.10
2018-11-23T19:08:06.490Z,9.10
2018-11-23T19:10:36.031Z,9.10
2018-11-23T19:13:06.361Z,9.00
2018-11-23T19:15:36.089Z,9.00
2018-11-23T19:18:05.725Z,9.00
2018-11-23T19:20:35.223Z,8.90
2018-11-23T19:23:04.648Z,8.90
2018-11-23T19:25:34.195Z,8.90
2018-11-23T19:28:03.857Z,8.90
2018-11-23T19:30:33.763Z,8.90
2018-11-23T19:33:03.300Z,8.80
2018-11-23T19:35:32.938Z,8.80
2018-11-23T19:38:03.310Z,8.80
2018-11-23T19:40:32.934Z,8.80
2018-11-23T19:43:02.505Z,8.80
2018-11-23T19:45:32.189Z,8.70
2018-11-23T19:48:01.751Z,8.70
2018-11-23T19:50:31.201Z,8.70
2018-11-23T19:53:00.676Z,8.70
2018-11-23T19:55:30.138Z,8.60
2018-11-23T19:57:59.686Z,8.60
2018-11-23T20:00:30.132Z,8.60
2018-11-23T20:03:00.414Z,8.50
2018-11-23T20:05:29.936Z,8.50
2018-11-23T20:07:59.514Z,8.50
2018-11-23T20:10:29.172Z,8.50
2018-11-23T20:12:59.051Z,8.40
2018-11-23T20:15:28.725Z,8.40
2018-11-23T20:17:58.152Z,8.40
2018-11-23T20:20:27.797Z,8.40
2018-11-23T20:22:57.645Z,8.40
2018-11-23T20:25:27.234Z,8.40
2018-11-23T20:27:57.013Z,8.30
2018-11-23T20:30:26.629Z,8.30
2018-11-23T20:32:56.909Z,8.30
2018-11-23T20:35:26.998Z,8.30
2018-11-23T20:37:56.424Z,8.30
2018-11-23T20:40:25.862Z,8.20
2018-11-23T20:42:55.323Z,8.20
2018-11-23T20:45:24.796Z,8.20
2018-11-23T20:47:54.439Z,8.10
2018-11-23T20:50:24.016Z,8.10
2018-11-23T20:52:53.518Z,8.10
2018-11-23T20:55:23.673Z,8.10
2018-11-23T20:57:53.481Z,8.10
2018-11-23T21:00:23.109Z,8.10
2018-11-23T21:02:53.233Z,8.00
2018-11-23T21:05:23.369Z,8.00
2018-11-23T21:07:52.932Z,8.00
2018-11-23T21:10:26.383Z,8.00
2018-11-23T21:12:56.353Z,7.90
2018-11-23T21:15:32.836Z,7.90
2018-11-23T21:18:04.310Z,7.80
2018-11-23T21:20:33.946Z,7.80
2018-11-23T21:23:03.411Z,7.80
2018-11-23T21:25:32.960Z,7.80
2018-11-23T21:28:02.426Z,7.80
2018-11-23T21:30:31.922Z,7.80
2018-11-23T21:33:01.577Z,7.80
2018-11-23T21:35:30.980Z,7.70
2018-11-23T21:38:00.687Z,7.70
2018-11-23T21:40:30.317Z,7.70
2018-11-23T21:42:59.927Z,7.70
2018-11-23T21:45:29.348Z,7.70
2018-11-23T21:47:59.164Z,7.70
2018-11-23T21:50:28.640Z,7.70
2018-11-23T21:52:58.169Z,7.70
2018-11-23T21:55:28.423Z,7.70
2018-11-23T21:57:58.114Z,7.70
2018-11-23T22:00:27.496Z,7.70
2018-11-23T22:02:57.021Z,7.70
2018-11-23T22:05:26.431Z,7.70
2018-11-23T22:07:55.948Z,7.70
2018-11-23T22:10:25.322Z,7.70
2018-11-23T22:12:54.810Z,7.70
2018-11-23T22:15:25.337Z,7.70
2018-11-23T22:17:57.127Z,7.70
2018-11-23T22:20:27.085Z,7.70
2018-11-23T22:22:56.721Z,7.70
2018-11-23T22:25:26.157Z,7.60
2018-11-23T22:27:55.795Z,7.60
2018-11-23T22:30:29.225Z,7.60
2018-11-23T22:32:59.082Z,7.50
2018-11-23T22:35:30.210Z,7.50
2018-11-23T22:37:59.626Z,7.50
2018-11-23T22:40:28.992Z,7.40
2018-11-23T22:42:59.697Z,7.50
2018-11-23T22:45:29.189Z,7.50
2018-11-23T22:47:58.861Z,7.50
2018-11-23T22:50:28.326Z,7.50
2018-11-23T22:52:58.005Z,7.50
2018-11-23T22:55:27.443Z,7.50
2018-11-23T22:57:57.054Z,7.50
2018-11-23T23:00:32.703Z,7.50
2018-11-23T23:03:02.255Z,7.50
2018-11-23T23:05:32.258Z,7.50
2018-11-23T23:08:02.082Z,7.50
2018-11-23T23:10:31.661Z,7.50
2018-11-23T23:13:01.152Z,7.50
2018-11-23T23:15:30.666Z,7.40
2018-11-23T23:18:00.641Z,7.40
2018-11-23T23:20:30.202Z,7.50
2018-11-23T23:22:59.850Z,7.40
2018-11-23T23:25:31.166Z,7.40
2018-11-23T23:28:00.796Z,7.40
2018-11-23T23:30:30.397Z,7.40
2018-11-23T23:33:00.139Z,7.40
2018-11-23T23:35:29.682Z,7.40
2018-11-23T23:37:59.093Z,7.30
2018-11-23T23:40:28.639Z,7.30
2018-11-23T23:42:58.134Z,7.30
2018-11-23T23:45:27.539Z,7.30
2018-11-23T23:47:57.412Z,7.30
2018-11-23T23:50:26.768Z,7.30
2018-11-23T23:52:56.253Z,7.30
2018-11-23T23:55:25.595Z,7.30
2018-11-23T23:57:55.153Z,7.30
